createdAt,value
2019-02-05T00:04:09.726Z,7.20
2019-02-05T00:08:03.527Z,7.57
2019-02-05T00:12:18.321Z,6.70
2019-02-05T00:15:24.934Z,6.57
2019-02-05T00:18:41.285Z,7.07
2019-02-05T00:22:16.958Z,6.93
2019-02-05T00:26:17.226Z,7.03
2019-02-05T00:34:45.114Z,7.00
2019-02-05T00:57:05.107Z,6.67
2019-02-05T01:00:59.810Z,6.60
2019-02-05T01:04:54.391Z,5.77
2019-02-05T01:17:42.638Z,5.77
2019-02-05T01:21:00.033Z,5.87
2019-02-05T01:24:55.779Z,6.13
2019-02-05T01:29:08.898Z,4.80
2019-02-05T01:32:12.130Z,6.13
2019-02-05T01:35:15.486Z,5.40
2019-02-05T01:38:18.734Z,5.93
2019-02-05T01:41:41.023Z,5.53
2019-02-05T01:44:44.166Z,5.87
2019-02-05T01:47:47.214Z,5.63
2019-02-05T01:50:50.342Z,5.67
2019-02-05T01:53:53.408Z,6.03
2019-02-05T01:56:56.742Z,4.57
2019-02-05T01:59:59.890Z,6.00
2019-02-05T02:03:03.332Z,5.80
2019-02-05T02:06:06.486Z,6.03
2019-02-05T02:09:09.619Z,5.90
2019-02-05T02:12:12.773Z,5.93
2019-02-05T02:15:16.428Z,5.53
2019-02-05T02:18:19.570Z,5.57
2019-02-05T02:21:22.819Z,5.47
2019-02-05T02:24:25.867Z,5.67
2019-02-05T02:27:29.130Z,5.87
2019-02-05T02:30:34.682Z,5.60
2019-02-05T02:33:37.943Z,5.37
2019-02-05T02:36:40.998Z,5.40
2019-02-05T02:39:44.261Z,6.13
2019-02-05T02:42:49.198Z,5.50
2019-02-05T02:45:52.334Z,5.27
2019-02-05T02:48:55.514Z,5.27
2019-02-05T02:51:59.006Z,4.43
2019-02-05T02:55:02.122Z,5.63
2019-02-05T02:58:05.362Z,5.60
2019-02-05T03:01:08.510Z,5.57
2019-02-05T03:04:11.775Z,5.67
2019-02-05T03:07:15.203Z,5.23
2019-02-05T03:10:20.654Z,5.73
2019-02-05T03:13:23.742Z,5.40
2019-02-05T03:16:27.148Z,5.93
2019-02-05T03:19:30.310Z,5.70
2019-02-05T03:22:33.439Z,6.13
2019-02-05T03:25:36.531Z,5.20
2019-02-05T03:28:39.723Z,5.40
2019-02-05T03:31:44.609Z,5.33
2019-02-05T03:34:47.649Z,5.37
2019-02-05T03:37:51.042Z,5.17
2019-02-05T03:41:11.855Z,2.90
2019-02-05T03:44:14.945Z,5.50
2019-02-05T03:47:19.736Z,6.03
2019-02-05T03:55:53.581Z,6.13
2019-02-05T03:59:20.295Z,5.70
2019-02-05T04:02:53.168Z,5.37
2019-02-05T04:06:34.753Z,5.93
2019-02-05T04:10:49.638Z,5.57
2019-02-05T04:14:30.103Z,5.73
2019-02-05T04:18:28.800Z,6.10
2019-02-05T04:21:48.958Z,6.00
2019-02-05T04:25:45.538Z,5.77
2019-02-05T04:29:24.918Z,5.50
2019-02-05T04:32:39.542Z,6.00
2019-02-05T04:36:11.317Z,7.83
2019-02-05T04:40:04.987Z,5.63
2019-02-05T04:43:34.914Z,6.63
2019-02-05T04:47:13.327Z,7.00
2019-02-05T04:51:01.383Z,7.60
2019-02-05T04:54:54.228Z,6.83
2019-02-05T04:58:42.057Z,7.63
2019-02-05T05:02:51.114Z,6.77
2019-02-05T05:06:11.794Z,7.70
2019-02-05T05:09:57.510Z,8.00
2019-02-05T05:13:00.965Z,6.80
2019-02-05T05:16:04.414Z,7.87
2019-02-05T05:19:08.466Z,7.83
2019-02-05T05:22:11.721Z,7.47
2019-02-05T05:25:15.204Z,7.77
2019-02-05T05:28:18.830Z,7.53
2019-02-05T05:31:22.177Z,7.53
2019-02-05T05:34:25.327Z,7.23
2019-02-05T05:37:28.434Z,6.97
2019-02-05T05:40:32.414Z,6.87
2019-02-05T05:43:35.634Z,7.27
2019-02-05T05:46:38.818Z,8.07
2019-02-05T05:49:42.170Z,7.57
2019-02-05T05:52:45.210Z,7.37
2019-02-05T05:55:48.342Z,7.00
2019-02-05T05:58:51.504Z,7.93
2019-02-05T06:01:54.846Z,7.27
2019-02-05T06:04:58.200Z,7.43
2019-02-05T06:08:01.362Z,7.97
2019-02-05T06:11:04.800Z,8.27
2019-02-05T06:14:08.032Z,8.10
2019-02-05T06:17:11.079Z,7.43
2019-02-05T06:20:15.894Z,7.90
2019-02-05T06:23:19.150Z,8.57
2019-02-05T06:26:22.243Z,7.57
2019-02-05T06:29:25.398Z,7.73
2019-02-05T06:32:28.525Z,7.90
2019-02-05T06:35:53.465Z,8.30
2019-02-05T06:38:57.434Z,7.50
2019-02-05T06:42:00.607Z,7.97
2019-02-05T06:45:04.618Z,8.30
2019-02-05T06:48:07.719Z,7.43
2019-02-05T06:51:11.326Z,8.00
2019-02-05T06:54:14.418Z,8.80
2019-02-05T06:57:17.818Z,7.93
2019-02-05T07:00:23.738Z,7.77
2019-02-05T07:03:27.242Z,7.83
2019-02-05T07:06:31.134Z,7.73
2019-02-05T07:09:35.477Z,7.10
2019-02-05T07:12:39.037Z,7.57
2019-02-05T07:15:42.593Z,7.17
2019-02-05T07:18:46.222Z,7.67
2019-02-05T07:21:49.749Z,7.87
2019-02-05T07:24:53.429Z,7.20
2019-02-05T07:27:56.957Z,8.33
2019-02-05T07:31:00.688Z,7.27
2019-02-05T07:34:04.373Z,7.70
2019-02-05T07:37:08.000Z,7.80
2019-02-05T07:40:14.165Z,7.10
2019-02-05T07:43:17.853Z,6.77
2019-02-05T07:46:21.353Z,6.93
2019-02-05T07:49:25.137Z,6.83
2019-02-05T07:52:29.300Z,7.70
2019-02-05T07:55:33.777Z,7.50
2019-02-05T07:58:37.412Z,7.43
2019-02-05T08:01:41.037Z,7.30
2019-02-05T08:04:45.767Z,7.27
2019-02-05T08:07:49.782Z,6.97
2019-02-05T08:10:53.591Z,6.97
2019-02-05T08:14:08.150Z,6.90
2019-02-05T08:21:07.320Z,6.77
2019-02-05T08:24:48.580Z,7.30
2019-02-05T08:27:57.601Z,6.67
2019-02-05T08:31:14.336Z,7.90
2019-02-05T08:34:18.121Z,6.53
2019-02-05T08:37:22.067Z,7.20
2019-02-05T08:40:25.965Z,7.53
2019-02-05T08:43:29.755Z,6.50
2019-02-05T08:46:33.345Z,7.40
2019-02-05T08:49:37.065Z,7.30
2019-02-05T08:52:40.929Z,6.57
2019-02-05T08:55:44.721Z,6.97
2019-02-05T08:58:48.448Z,6.37
2019-02-05T09:01:52.389Z,7.13
2019-02-05T09:04:56.114Z,6.33
2019-02-05T09:08:00.231Z,7.53
2019-02-05T09:11:04.325Z,7.73
2019-02-05T09:14:10.917Z,7.63
2019-02-05T09:17:13.502Z,7.40
2019-02-05T09:20:17.759Z,7.93
2019-02-05T09:23:21.434Z,7.30
2019-02-05T09:26:25.166Z,7.70
2019-02-05T09:29:33.449Z,6.73
2019-02-05T09:32:35.110Z,7.53
2019-02-05T09:35:38.799Z,7.53
2019-02-05T09:38:42.555Z,7.50
2019-02-05T09:41:46.205Z,7.20
2019-02-05T09:44:50.467Z,7.60
2019-02-05T09:47:54.109Z,6.70
2019-02-05T09:50:58.189Z,8.00
2019-02-05T09:54:02.084Z,7.30
2019-02-05T09:57:17.671Z,7.43
2019-02-05T10:00:47.083Z,7.83
2019-02-05T10:03:50.821Z,7.37
2019-02-05T10:06:54.572Z,7.83
2019-02-05T10:09:58.202Z,7.47
2019-02-05T10:13:02.071Z,7.83
2019-02-05T10:16:05.854Z,8.20
2019-02-05T10:19:09.527Z,7.80
2019-02-05T10:22:13.289Z,7.77
2019-02-05T10:25:17.252Z,7.73
2019-02-05T10:28:21.293Z,7.27
2019-02-05T10:31:24.921Z,6.90
2019-02-05T10:34:34.195Z,7.43
2019-02-05T10:37:33.998Z,7.43
2019-02-05T10:40:37.856Z,8.20
2019-02-05T10:43:41.521Z,8.03
2019-02-05T10:46:45.172Z,7.90
2019-02-05T10:49:50.285Z,8.00
2019-02-05T10:52:53.981Z,6.50
2019-02-05T10:55:57.699Z,8.20
2019-02-05T10:59:01.692Z,7.57
2019-02-05T11:02:05.405Z,7.80
2019-02-05T11:05:11.299Z,7.47
2019-02-05T11:08:14.985Z,6.87
2019-02-05T11:11:18.686Z,6.78
2019-02-05T11:14:22.378Z,6.60
2019-02-05T11:17:26.106Z,7.03
2019-02-05T11:20:29.768Z,8.78
2019-02-05T11:23:33.403Z,8.27
2019-02-05T11:26:37.024Z,7.57
2019-02-05T11:29:40.708Z,7.83
2019-02-05T11:32:44.315Z,7.83
2019-02-05T11:35:48.042Z,8.33
2019-02-05T11:38:52.777Z,8.70
2019-02-05T11:41:56.765Z,8.47
2019-02-05T11:45:00.394Z,9.13
2019-02-05T11:48:05.851Z,8.97
2019-02-05T11:51:09.933Z,8.53
2019-02-05T11:54:13.546Z,8.83
2019-02-05T11:57:17.186Z,8.20
2019-02-05T12:00:33.225Z,7.90
2019-02-05T12:03:36.945Z,9.30
2019-02-05T12:06:40.679Z,8.05
2019-02-05T12:09:44.465Z,8.47
2019-02-05T12:12:48.195Z,8.87
2019-02-05T12:15:51.773Z,8.50
2019-02-05T12:18:55.769Z,9.40
2019-02-05T12:21:59.292Z,8.40
2019-02-05T12:25:03.126Z,8.73
2019-02-05T12:28:06.814Z,8.10
2019-02-05T12:31:10.529Z,7.53
2019-02-05T12:34:14.248Z,7.63
2019-02-05T12:37:18.009Z,6.77
2019-02-05T12:40:21.636Z,7.83
2019-02-05T12:43:25.266Z,7.90
2019-02-05T12:46:28.850Z,8.03
2019-02-05T12:49:32.687Z,9.33
2019-02-05T12:52:36.364Z,8.00
2019-02-05T12:55:39.926Z,7.97
2019-02-05T12:58:43.699Z,8.10
2019-02-05T13:01:47.461Z,7.50
2019-02-05T13:04:50.986Z,8.40
2019-02-05T13:07:54.722Z,8.17
2019-02-05T13:10:58.529Z,8.53
2019-02-05T13:14:02.413Z,8.57
2019-02-05T13:17:06.025Z,8.13
2019-02-05T13:20:13.093Z,9.40
2019-02-05T13:23:16.689Z,8.17
2019-02-05T13:26:20.325Z,8.63
2019-02-05T13:29:24.047Z,10.20
2019-02-05T13:32:28.002Z,9.83
2019-02-05T13:35:31.616Z,9.73
2019-02-05T13:38:35.197Z,9.43
2019-02-05T13:41:39.900Z,10.20
2019-02-05T13:44:44.037Z,9.70
2019-02-05T13:47:47.723Z,9.47
2019-02-05T13:50:51.465Z,10.30
2019-02-05T13:53:55.343Z,10.10
2019-02-05T13:56:59.089Z,8.50
2019-02-05T14:00:03.272Z,9.53
2019-02-05T14:03:08.321Z,9.50
2019-02-05T14:06:12.016Z,8.60
2019-02-05T14:09:16.131Z,9.83
2019-02-05T14:12:21.798Z,9.70
2019-02-05T14:15:26.713Z,9.33
2019-02-05T14:18:31.405Z,9.40
2019-02-05T14:21:35.037Z,8.73
2019-02-05T14:24:38.660Z,9.47
2019-02-05T14:27:42.405Z,8.90
2019-02-05T14:30:50.793Z,8.47
2019-02-05T14:33:54.545Z,9.43
2019-02-05T14:36:58.073Z,8.87
2019-02-05T14:40:01.805Z,8.93
2019-02-05T14:43:06.037Z,9.33
2019-02-05T14:46:09.730Z,9.37
2019-02-05T14:49:13.412Z,8.93
2019-02-05T14:52:17.247Z,9.47
2019-02-05T14:55:21.029Z,10.17
2019-02-05T14:58:24.915Z,10.20
2019-02-05T15:01:28.449Z,9.90
2019-02-05T15:04:32.075Z,9.43
2019-02-05T15:07:35.660Z,9.33
2019-02-05T15:10:39.161Z,9.97
2019-02-05T15:13:43.021Z,9.53
2019-02-05T15:16:48.081Z,10.37
2019-02-05T15:19:51.916Z,9.23
2019-02-05T15:22:55.600Z,9.57
2019-02-05T15:25:59.331Z,10.83
2019-02-05T15:29:02.993Z,9.33
2019-02-05T15:32:06.745Z,10.27
2019-02-05T15:35:10.545Z,10.60
2019-02-05T15:38:14.262Z,11.90
2019-02-05T15:41:17.853Z,10.40
2019-02-05T15:44:21.475Z,9.60
2019-02-05T15:47:25.057Z,9.03
2019-02-05T15:50:28.783Z,10.33
2019-02-05T15:53:32.380Z,9.73
2019-02-05T15:56:35.997Z,10.57
2019-02-05T15:59:39.579Z,10.40
2019-02-05T16:02:43.304Z,10.50
2019-02-05T16:05:46.998Z,10.53
2019-02-05T16:08:50.617Z,10.20
2019-02-05T16:11:54.205Z,10.53
2019-02-05T16:14:57.701Z,9.83
2019-02-05T16:18:01.329Z,10.30
2019-02-05T16:21:05.040Z,10.17
2019-02-05T16:24:08.948Z,10.30
2019-02-05T16:27:12.533Z,9.47
2019-02-05T16:30:17.690Z,9.83
2019-02-05T16:33:21.278Z,10.43
2019-02-05T16:36:25.006Z,9.93
2019-02-05T16:39:28.694Z,10.70
2019-02-05T16:42:32.316Z,10.77
2019-02-05T16:45:35.902Z,11.23
2019-02-05T16:48:39.527Z,10.90
2019-02-05T16:51:43.209Z,11.47
2019-02-05T16:54:46.773Z,10.20
2019-02-05T16:57:50.397Z,10.23
2019-02-05T17:00:54.285Z,10.83
2019-02-05T17:03:57.838Z,10.73
2019-02-05T17:07:01.393Z,8.40
2019-02-05T17:10:06.417Z,9.13
2019-02-05T17:13:11.765Z,10.77
2019-02-05T17:16:15.534Z,12.10
2019-02-05T17:19:19.209Z,10.60
2019-02-05T17:22:22.864Z,11.43
2019-02-05T17:25:27.001Z,10.47
2019-02-05T17:28:30.566Z,10.87
2019-02-05T17:31:34.190Z,11.10
2019-02-05T17:34:37.877Z,10.73
2019-02-05T17:37:41.707Z,11.93
2019-02-05T17:40:45.393Z,10.40
2019-02-05T17:43:50.470Z,10.13
2019-02-05T17:46:54.241Z,10.43
2019-02-05T17:49:58.297Z,11.37
2019-02-05T17:53:02.188Z,10.47
2019-02-05T17:56:05.829Z,12.30
2019-02-05T17:59:09.500Z,11.23
2019-02-05T18:02:13.341Z,11.07
2019-02-05T18:05:17.074Z,10.57
2019-02-05T18:08:20.725Z,11.27
2019-02-05T18:11:24.306Z,8.97
2019-02-05T18:14:27.885Z,10.03
2019-02-05T18:17:31.493Z,11.23
2019-02-05T18:20:35.073Z,9.87
2019-02-05T18:23:38.703Z,10.47
2019-02-05T18:26:42.230Z,9.13
2019-02-05T18:29:45.855Z,9.37
2019-02-05T18:32:49.569Z,9.87
2019-02-05T18:35:53.221Z,9.63
2019-02-05T18:38:56.749Z,10.03
2019-02-05T18:42:00.376Z,8.93
2019-02-05T18:45:04.813Z,9.07
2019-02-05T18:48:08.486Z,8.77
2019-02-05T18:51:12.112Z,9.57
2019-02-05T18:54:15.797Z,9.20
2019-02-05T18:57:19.528Z,9.43
2019-02-05T19:00:28.176Z,8.90
2019-02-05T19:03:31.836Z,8.63
2019-02-05T19:06:35.469Z,8.30
2019-02-05T19:09:39.149Z,8.50
2019-02-05T19:12:42.773Z,8.83
2019-02-05T19:15:46.471Z,8.00
2019-02-05T19:18:49.961Z,8.77
2019-02-05T19:21:53.588Z,8.30
2019-02-05T19:25:04.927Z,8.90
2019-02-05T19:28:08.862Z,9.47
2019-02-05T19:31:24.696Z,8.77
2019-02-05T19:34:28.337Z,9.43
2019-02-05T19:37:31.857Z,9.03
2019-02-05T19:40:35.650Z,8.57
2019-02-05T19:43:39.301Z,8.47
2019-02-05T19:47:07.533Z,8.23
2019-02-05T19:50:11.294Z,9.27
2019-02-05T19:53:15.541Z,9.07
2019-02-05T19:56:19.297Z,8.63
2019-02-05T19:59:23.121Z,9.70
2019-02-05T20:02:26.736Z,8.50
2019-02-05T20:05:30.373Z,9.77
2019-02-05T20:08:34.038Z,8.73
2019-02-05T20:11:38.163Z,9.47
2019-02-05T20:14:53.649Z,10.97
2019-02-05T20:17:59.576Z,8.50
2019-02-05T20:21:03.424Z,9.33
2019-02-05T20:24:10.742Z,9.07
2019-02-05T20:27:20.865Z,9.20
2019-02-05T20:30:27.248Z,9.03
2019-02-05T20:33:31.806Z,10.47
2019-02-05T20:36:37.334Z,9.87
2019-02-05T20:39:43.246Z,9.97
2019-02-05T20:42:48.802Z,9.53
2019-02-05T20:45:53.602Z,8.87
2019-02-05T20:48:58.023Z,9.30
2019-02-05T20:52:03.041Z,9.30
2019-02-05T20:55:09.441Z,10.30
2019-02-05T20:58:13.171Z,9.63
2019-02-05T21:01:16.789Z,9.07
2019-02-05T21:04:20.608Z,9.83
2019-02-05T21:07:24.678Z,9.73
2019-02-05T21:10:28.641Z,9.80
2019-02-05T21:13:35.906Z,9.97
2019-02-05T21:16:42.230Z,9.60
2019-02-05T21:19:45.981Z,9.80
2019-02-05T21:22:49.557Z,10.47
2019-02-05T21:25:59.279Z,10.33
2019-02-05T21:29:05.527Z,9.83
2019-02-05T21:32:12.122Z,9.93
2019-02-05T21:35:30.552Z,11.20
2019-02-05T21:38:39.552Z,10.30
2019-02-05T21:41:47.277Z,10.17
2019-02-05T21:44:57.786Z,10.23
2019-02-05T21:48:12.893Z,10.33
2019-02-05T21:51:23.182Z,10.47
2019-02-05T21:54:35.248Z,10.90
2019-02-05T21:57:49.511Z,10.80
2019-02-05T22:00:54.453Z,10.87
2019-02-05T22:03:59.209Z,10.57
2019-02-05T22:07:04.134Z,10.47
2019-02-05T22:10:09.648Z,10.47
2019-02-05T22:13:14.470Z,11.30
2019-02-05T22:16:20.507Z,10.20
2019-02-05T22:19:25.159Z,10.67
2019-02-05T22:22:38.625Z,9.83
2019-02-05T22:25:43.236Z,10.63
2019-02-05T22:29:00.237Z,10.17
2019-02-05T22:32:18.008Z,10.67
2019-02-05T22:35:25.282Z,11.90
2019-02-05T22:38:29.851Z,10.60
2019-02-05T22:41:34.193Z,11.93
2019-02-05T22:44:38.494Z,10.67
2019-02-05T22:47:43.742Z,11.67
2019-02-05T22:50:48.681Z,10.43
2019-02-05T22:53:53.040Z,12.03
2019-02-05T22:56:57.835Z,12.10
2019-02-05T23:00:01.785Z,11.67
2019-02-05T23:03:06.307Z,11.10
2019-02-05T23:06:55.383Z,12.13
2019-02-05T23:10:35.747Z,12.20
2019-02-05T23:13:39.187Z,11.53
2019-02-05T23:16:45.452Z,11.73
2019-02-05T23:19:54.178Z,9.57
2019-02-05T23:22:57.648Z,12.40
2019-02-05T23:26:01.139Z,12.67
2019-02-05T23:29:05.578Z,12.87
2019-02-05T23:32:09.968Z,12.93
2019-02-05T23:35:50.055Z,12.83
2019-02-05T23:38:53.779Z,11.70
2019-02-05T23:41:57.870Z,13.87
2019-02-05T23:45:01.499Z,11.23
2019-02-05T23:48:05.070Z,11.67
2019-02-05T23:51:08.283Z,12.30
2019-02-05T23:54:11.627Z,13.63
2019-02-05T23:57:15.081Z,13.70
